Time;durP1;ratioP1;P1;durP2;ratioP2;P2;SDS_P1;SDS_P2;PMS_P1;PMS_P2;Temp;Humidity;BMP_temperature;BMP_pressure;BME280_temperature;BME280_humidity;BME280_pressure;Samples;Min_cycle;Max_cycle;Signal;HPM_P1;HPM_P2
2021/12/19 00:00:09;;;;;;;;;7.67;6.67;;;;;21.73;50.65;101102.37;108614;1281;18740;-83
2021/12/19 00:03:07;;;;;;;;;11.00;9.00;;;;;21.74;50.58;101100.96;108894;1279;19015;-83
2021/12/19 00:08:44;;;;;;;;;6.67;6.33;;;;;21.74;50.49;101090.70;108884;1278;18831;-82
2021/12/19 00:11:11;;;;;;;;;10.00;9.00;;;;;21.74;50.55;101083.36;108901;1280;18949;-82
2021/12/19 00:13:40;;;;;;;;;6.00;6.00;;;;;21.74;50.60;101081.02;108873;1280;23183;-82
2021/12/19 00:16:06;;;;;;;;;6.67;5.33;;;;;21.74;50.49;101073.96;108869;1279;18783;-82
2021/12/19 00:18:34;;;;;;;;;9.00;8.00;;;;;21.73;50.48;101066.73;108131;1280;996771;-82
2021/12/19 00:21:00;;;;;;;;;9.00;7.00;;;;;21.74;50.50;101068.67;108849;1279;19391;-82
2021/12/19 00:23:26;;;;;;;;;8.50;6.00;;;;;21.73;50.57;101072.58;108931;1280;18535;-82
2021/12/19 00:25:54;;;;;;;;;6.67;6.00;;;;;21.72;50.50;101069.37;108914;1279;18810;-83
2021/12/19 00:28:20;;;;;;;;;9.00;7.33;;;;;21.74;50.41;101064.23;108678;1281;19722;-84
2021/12/19 00:30:52;;;;;;;;;9.00;8.33;;;;;21.72;50.42;101055.05;110407;1279;18702;-84
2021/12/19 00:33:19;;;;;;;;;8.00;6.00;;;;;21.73;50.50;101049.14;110459;1279;19476;-85
2021/12/19 00:35:49;;;;;;;;;8.67;7.33;;;;;21.75;50.47;101040.56;109260;1281;19689;-84
2021/12/19 00:38:16;;;;;;;;;9.67;9.00;;;;;21.76;50.26;101031.66;108865;1281;19003;-84
2021/12/19 00:40:47;;;;;;;;;6.67;6.67;;;;;21.76;50.25;101027.10;108918;1280;19016;-84
2021/12/19 00:43:24;;;;;;;;;7.00;7.00;;;;;21.74;50.34;101018.95;108924;1279;19513;-84
2021/12/19 00:45:54;;;;;;;;;6.50;5.50;;;;;21.75;50.42;101008.16;108586;1281;18790;-84
2021/12/19 00:48:21;;;;;;;;;8.33;7.00;;;;;21.74;50.35;101007.90;108840;1280;22119;-84
2021/12/19 00:50:52;;;;;;;;;5.67;5.00;;;;;21.73;50.45;101004.70;108845;1279;21437;-84
2021/12/19 00:53:19;;;;;;;;;9.50;9.00;;;;;21.73;50.28;100996.96;108860;1279;18815;-84
2021/12/19 00:55:45;;;;;;;;;7.33;6.67;;;;;21.70;50.33;100985.22;108909;1279;19892;-84
2021/12/19 00:58:15;;;;;;;;;7.00;7.00;;;;;21.73;50.21;100991.14;108641;1281;19778;-85
2021/12/19 01:00:42;;;;;;;;;7.00;6.00;;;;;21.71;50.37;100979.65;108924;1279;18590;-83
2021/12/19 01:03:10;;;;;;;;;6.00;6.00;;;;;21.72;50.25;100974.70;108894;1279;18875;-83
2021/12/19 01:05:36;;;;;;;;;9.00;7.00;;;;;21.71;50.27;100973.35;108868;1280;19327;-84
2021/12/19 01:08:12;;;;;;;;;6.00;6.00;;;;;21.71;50.50;100970.92;108928;1279;18667;-84
2021/12/19 01:10:42;;;;;;;;;7.00;6.00;;;;;21.71;50.30;100958.41;108615;1280;21102;-84
2021/12/19 01:13:10;;;;;;;;;9.00;6.67;;;;;21.72;50.21;100949.27;108895;1280;19634;-84
2021/12/19 01:15:41;;;;;;;;;7.00;6.33;;;;;21.71;50.25;100938.39;108881;1281;18899;-84
2021/12/19 01:18:11;;;;;;;;;6.00;6.00;;;;;21.69;50.26;100923.12;108579;1280;19634;-84
2021/12/19 01:20:39;;;;;;;;;6.00;6.00;;;;;21.71;50.43;100920.08;108913;1279;19616;-84
2021/12/19 01:23:07;;;;;;;;;6.67;6.00;;;;;21.70;50.19;100907.05;108598;1281;18628;-84
2021/12/19 01:25:37;;;;;;;;;7.00;6.00;;;;;21.69;50.31;100897.50;108910;1279;22236;-83
2021/12/19 01:28:04;;;;;;;;;6.00;6.00;;;;;21.70;50.25;100893.77;108842;1280;19624;-84
2021/12/19 01:30:39;;;;;;;;;7.00;7.00;;;;;21.69;50.44;100886.93;108905;1279;18732;-84
2021/12/19 01:33:06;;;;;;;;;6.00;6.00;;;;;21.70;50.19;100876.36;108899;1280;18791;-84
2021/12/19 01:35:40;;;;;;;;;6.00;6.00;;;;;21.70;50.35;100871.20;108841;1280;19596;-84
2021/12/19 01:38:10;;;;;;;;;7.33;6.00;;;;;21.69;50.15;100866.27;108871;1280;23028;-84
2021/12/19 01:40:36;;;;;;;;;5.50;5.50;;;;;21.69;50.26;100865.59;108841;1279;20698;-85
2021/12/19 01:43:06;;;;;;;;;7.33;7.00;;;;;21.68;50.42;100864.94;108880;1279;19880;-84
2021/12/19 01:45:34;;;;;;;;;8.00;8.00;;;;;21.66;50.26;100854.25;108890;1279;19202;-83
2021/12/19 01:48:10;;;;;;;;;6.67;6.00;;;;;21.67;50.22;100855.41;108891;1279;19618;-84
2021/12/19 01:50:36;;;;;;;;;8.33;6.00;;;;;21.67;50.38;100853.90;108861;1280;19625;-84
2021/12/19 01:53:03;;;;;;;;;6.33;6.00;;;;;21.69;50.18;100865.65;108874;1278;18910;-84
2021/12/19 01:55:32;;;;;;;;;4.67;4.67;;;;;21.67;50.25;100856.29;108601;1280;19589;-84
2021/12/19 01:58:09;;;;;;;;;6.00;6.00;;;;;21.68;50.18;100859.79;108888;1280;19583;-84
2021/12/19 02:00:39;;;;;;;;;6.00;5.33;;;;;21.68;50.25;100855.26;108886;1279;18716;-84
2021/12/19 02:03:13;;;;;;;;;5.00;5.00;;;;;21.69;50.22;100843.48;108873;1279;18786;-84
2021/12/19 02:05:42;;;;;;;;;6.33;5.67;;;;;21.69;50.19;100837.21;108860;1279;20300;-84
2021/12/19 02:08:20;;;;;;;;;6.50;6.50;;;;;21.68;50.20;100839.02;108855;1279;18820;-84
2021/12/19 02:10:54;;;;;;;;;6.67;6.67;;;;;21.70;50.28;100836.36;108588;1280;18801;-84
2021/12/19 02:13:21;;;;;;;;;6.67;5.00;;;;;21.71;50.27;100833.31;108872;1280;19670;-84
2021/12/19 02:15:49;;;;;;;;;5.00;5.00;;;;;21.68;50.30;100824.50;108892;1279;18681;-84
2021/12/19 02:18:15;;;;;;;;;7.00;6.50;;;;;21.69;50.31;100820.98;108906;1279;18600;-84
2021/12/19 02:20:49;;;;;;;;;5.67;5.67;;;;;21.68;50.37;100816.59;108882;1280;19598;-84
2021/12/19 02:23:18;;;;;;;;;6.33;6.00;;;;;21.67;50.13;100808.86;108912;1279;18810;-84
2021/12/19 02:25:45;;;;;;;;;6.00;6.00;;;;;21.68;50.10;100804.69;108893;1279;18728;-84
2021/12/19 02:28:13;;;;;;;;;5.33;5.33;;;;;21.67;50.22;100792.09;108918;1279;19636;-83
2021/12/19 02:30:41;;;;;;;;;7.00;6.00;;;;;21.68;50.21;100784.61;108910;1279;18868;-85
2021/12/19 02:33:14;;;;;;;;;5.00;5.00;;;;;21.67;50.33;100789.70;108858;1280;19049;-85
2021/12/19 02:35:59;;;;;;;;;6.67;6.00;;;;;21.68;50.22;100786.73;108848;1280;20070;-84
2021/12/19 02:49:23;;;;;;;;;6.00;6.00;;;;;21.65;50.37;100779.08;108846;1279;18779;-84
2021/12/19 02:52:01;;;;;;;;;8.67;6.67;;;;;21.66;50.23;100784.77;108891;1280;20345;-85
2021/12/19 02:54:30;;;;;;;;;6.33;5.33;;;;;21.65;50.32;100784.57;108860;1279;18797;-84
2021/12/19 02:56:59;;;;;;;;;5.67;5.00;;;;;21.66;50.29;100786.98;108863;1279;19298;-85
2021/12/19 02:59:32;;;;;;;;;5.00;5.00;;;;;21.66;50.37;100787.56;108854;1281;20242;-84
2021/12/19 03:01:58;;;;;;;;;5.00;5.00;;;;;21.66;50.27;100785.89;108852;1279;18789;-84
2021/12/19 03:04:26;;;;;;;;;6.00;5.00;;;;;21.65;50.13;100776.70;108875;1279;18814;-85
2021/12/19 03:06:53;;;;;;;;;5.00;5.00;;;;;21.65;50.27;100771.02;108862;1279;19664;-84
2021/12/19 03:09:36;;;;;;;;;5.50;5.00;;;;;21.64;50.26;100764.79;108880;1279;18675;-84
2021/12/19 03:12:11;;;;;;;;;5.33;5.00;;;;;21.64;50.30;100765.70;108842;1279;18820;-84
2021/12/19 03:20:07;;;;;;;;;5.33;4.67;;;;;21.64;50.35;100753.55;108839;1279;18834;-85
2021/12/19 03:22:50;;;;;;;;;5.00;5.00;;;;;21.64;50.23;100746.23;108837;1279;19971;-85
2021/12/19 03:25:18;;;;;;;;;5.00;4.33;;;;;21.64;50.25;100749.80;108915;1280;18649;-85
2021/12/19 03:27:46;;;;;;;;;5.00;4.33;;;;;21.64;50.30;100742.63;108974;1280;19682;-85
2021/12/19 03:30:28;;;;;;;;;5.00;4.67;;;;;21.64;50.09;100734.02;108881;1279;20208;-83
2021/12/19 03:32:54;;;;;;;;;5.67;5.33;;;;;21.64;50.22;100728.61;108896;1278;18742;-83
2021/12/19 03:35:20;;;;;;;;;6.00;5.00;;;;;21.65;50.35;100728.17;108873;1279;18839;-83
2021/12/19 03:37:47;;;;;;;;;6.00;6.00;;;;;21.65;50.28;100722.39;108780;1281;19634;-83
2021/12/19 03:40:24;;;;;;;;;3.00;3.00;;;;;21.64;50.28;100723.89;108891;1280;19292;-83
2021/12/19 03:42:56;;;;;;;;;5.33;5.00;;;;;21.64;50.17;100723.70;108906;1280;18801;-83
2021/12/19 03:45:26;;;;;;;;;5.33;5.00;;;;;21.64;50.03;100718.29;108874;1279;22640;-83
2021/12/19 03:47:52;;;;;;;;;6.00;6.00;;;;;21.63;50.29;100714.20;108534;1279;21149;-83
2021/12/19 03:50:21;;;;;;;;;5.67;5.67;;;;;21.64;50.28;100721.05;108879;1279;19169;-83
2021/12/19 03:52:47;;;;;;;;;5.00;5.00;;;;;21.64;50.20;100715.77;108542;1281;21268;-83
2021/12/19 03:55:34;;;;;;;;;5.00;5.00;;;;;21.64;50.30;100711.98;108883;1279;18685;-83
2021/12/19 03:58:08;;;;;;;;;3.00;3.00;;;;;21.64;50.23;100710.48;108847;1281;19166;-83
2021/12/19 04:00:35;;;;;;;;;3.00;3.00;;;;;21.63;50.22;100711.30;108870;1279;19756;-83
2021/12/19 04:03:07;;;;;;;;;4.00;3.33;;;;;21.63;50.25;100706.27;108598;1281;18712;-83
2021/12/19 04:05:49;;;;;;;;;5.00;4.50;;;;;21.62;50.21;100693.58;108793;1280;19434;-83
2021/12/19 04:08:25;;;;;;;;;6.00;4.00;;;;;21.63;50.15;100686.59;108874;1280;19655;-83
2021/12/19 04:10:51;;;;;;;;;5.00;5.00;;;;;21.63;50.25;100682.18;108892;1280;18744;-83
2021/12/19 04:13:17;;;;;;;;;4.00;4.00;;;;;21.63;50.21;100675.85;108761;1279;22291;-84
2021/12/19 04:15:51;;;;;;;;;3.00;3.00;;;;;21.63;50.21;100675.88;108998;1279;19846;-84
2021/12/19 04:18:18;;;;;;;;;3.00;3.00;;;;;21.63;50.13;100675.44;108589;1281;19030;-83
2021/12/19 04:20:49;;;;;;;;;3.33;3.00;;;;;21.64;50.22;100671.70;108896;1279;19386;-83
2021/12/19 04:23:30;;;;;;;;;6.00;5.00;;;;;21.64;50.20;100668.89;108845;1279;19892;-84
2021/12/19 04:25:57;;;;;;;;;4.50;4.50;;;;;21.63;50.10;100665.39;108851;1280;18869;-83
2021/12/19 04:28:25;;;;;;;;;3.00;3.00;;;;;21.62;50.23;100663.23;108891;1280;20154;-83
2021/12/19 04:30:51;;;;;;;;;5.00;5.00;;;;;21.62;50.19;100661.02;108843;1280;22507;-84
2021/12/19 04:33:22;;;;;;;;;5.00;5.00;;;;;21.62;50.21;100659.46;108880;1279;19576;-83
2021/12/19 04:35:50;;;;;;;;;4.67;3.33;;;;;21.62;50.17;100662.02;108881;1279;19616;-83
2021/12/19 04:39:04;;;;;;;;;5.67;5.00;;;;;21.63;50.27;100661.33;108851;1279;19855;-83
2021/12/19 04:41:59;;;;;;;;;5.00;5.00;;;;;21.62;50.06;100655.41;108948;1279;18637;-84
2021/12/19 04:53:09;;;;;;;;;5.00;5.00;;;;;21.65;50.11;100662.68;109153;1279;18802;-84
2021/12/19 04:58:45;;;;;;;;;3.00;3.00;;;;;21.64;50.20;100652.52;108809;1280;19344;-83
2021/12/19 05:04:09;;;;;;;;;4.00;4.00;;;;;21.65;50.16;100658.18;108758;1279;19684;-83
2021/12/19 05:14:02;;;;;;;;;4.00;4.00;;;;;21.64;50.17;100654.30;108872;1279;18779;-84
2021/12/19 05:15:16;;;;;;;;;5.00;4.00;;;;;21.62;49.96;100636.85;109011;1280;18521;-84
2021/12/19 05:17:44;;;;;;;;;4.00;2.00;;;;;21.62;50.11;100619.77;109039;1278;18935;-84
2021/12/19 05:20:16;;;;;;;;;4.00;2.00;;;;;21.61;50.24;100621.48;108893;1279;20389;-83
2021/12/19 05:22:48;;;;;;;;;4.33;4.33;;;;;21.62;50.11;100622.91;108909;1279;18736;-83
2021/12/19 05:25:23;;;;;;;;;6.00;5.00;;;;;21.62;50.13;100619.23;108908;1279;18861;-84
2021/12/19 05:27:51;;;;;;;;;5.00;4.00;;;;;21.63;50.18;100618.23;108876;1279;19931;-83
2021/12/19 05:30:21;;;;;;;;;5.00;3.00;;;;;21.63;50.05;100621.73;108873;1280;18785;-83
2021/12/19 05:32:52;;;;;;;;;4.00;4.00;;;;;21.62;50.07;100619.73;108594;1281;20686;-84
2021/12/19 05:35:25;;;;;;;;;4.00;3.00;;;;;21.62;50.17;100614.70;108873;1279;19683;-83
2021/12/19 05:46:22;;;;;;;;;4.00;4.00;;;;;21.61;50.12;100595.52;108338;1287;18656;-84
2021/12/19 05:48:49;;;;;;;;;4.00;4.00;;;;;21.61;50.02;100591.35;108318;1288;19390;-83
2021/12/19 05:51:15;;;;;;;;;5.00;2.00;;;;;21.62;50.09;100589.39;108336;1287;19637;-83
2021/12/19 05:53:46;;;;;;;;;2.00;2.00;;;;;21.62;50.14;100599.80;108345;1287;18853;-84
2021/12/19 05:56:16;;;;;;;;;4.00;4.00;;;;;21.61;50.15;100611.66;108364;1287;18902;-84
2021/12/19 05:58:44;;;;;;;;;4.33;4.00;;;;;21.61;50.12;100614.02;108344;1287;22502;-83
2021/12/19 06:01:14;;;;;;;;;3.00;3.00;;;;;21.61;50.04;100617.37;108325;1287;19003;-84
2021/12/19 06:03:41;;;;;;;;;2.00;2.00;;;;;21.62;50.06;100621.07;108362;1288;19000;-84
2021/12/19 06:06:09;;;;;;;;;5.00;5.00;;;;;21.60;50.08;100617.23;108331;1287;20338;-83
2021/12/19 06:08:46;;;;;;;;;2.67;2.00;;;;;21.61;50.12;100621.90;108330;1287;18815;-83
2021/12/19 06:11:15;;;;;;;;;2.00;2.00;;;;;21.60;50.11;100615.84;108418;1285;19225;-83
2021/12/19 06:13:41;;;;;;;;;4.00;4.00;;;;;21.59;50.20;100619.37;108321;1287;19580;-83
2021/12/19 06:16:10;;;;;;;;;4.00;4.00;;;;;21.59;50.25;100611.59;108339;1287;19080;-83
2021/12/19 06:18:37;;;;;;;;;2.00;2.00;;;;;21.59;50.22;100612.62;108311;1288;19731;-83
2021/12/19 06:21:21;;;;;;;;;4.00;4.00;;;;;21.60;50.07;100613.25;108709;1280;19652;-84
2021/12/19 06:23:51;;;;;;;;;4.00;4.00;;;;;21.59;50.00;100609.45;108860;1281;23050;-84
2021/12/19 06:26:18;;;;;;;;;4.00;4.00;;;;;21.59;50.12;100611.19;108883;1279;18979;-83
2021/12/19 06:28:52;;;;;;;;;4.00;4.00;;;;;21.63;49.97;100619.31;108859;1279;20541;-82
2021/12/19 06:31:19;;;;;;;;;5.00;4.00;;;;;21.61;50.30;100621.83;108911;1279;18914;-82
2021/12/19 06:33:46;;;;;;;;;4.00;4.00;;;;;21.64;50.27;100617.44;108875;1279;19051;-82
2021/12/19 06:36:20;;;;;;;;;2.33;2.00;;;;;21.66;50.41;100618.55;108572;1279;19815;-81
2021/12/19 06:38:46;;;;;;;;;2.00;2.00;;;;;21.67;50.40;100624.80;108871;1279;18464;-82
2021/12/19 06:41:12;;;;;;;;;6.50;5.00;;;;;21.70;50.68;100629.59;108921;1279;18701;-81
2021/12/19 06:43:39;;;;;;;;;4.00;4.00;;;;;21.72;50.93;100627.45;108924;1279;19574;-83
2021/12/19 06:46:06;;;;;;;;;5.67;5.33;;;;;21.74;50.85;100623.90;108881;1280;18692;-80
2021/12/19 06:48:32;;;;;;;;;5.00;5.00;;;;;21.76;51.13;100626.29;108962;1279;18927;-82
2021/12/19 06:51:06;;;;;;;;;4.00;4.00;;;;;21.77;51.29;100629.01;108983;1278;19864;-82
2021/12/19 06:53:33;;;;;;;;;4.00;4.00;;;;;21.78;51.30;100623.67;108961;1280;18707;-83
2021/12/19 06:55:59;;;;;;;;;3.00;3.00;;;;;21.79;51.61;100620.05;108673;1281;18645;-83
2021/12/19 06:58:27;;;;;;;;;5.00;3.00;;;;;21.80;52.11;100614.43;109017;1279;19570;-82
2021/12/19 07:00:56;;;;;;;;;4.33;4.00;;;;;21.82;52.44;100618.03;108931;1279;18770;-83
2021/12/19 07:03:24;;;;;;;;;3.50;3.50;;;;;21.87;52.39;100624.23;108852;1279;18652;-84
2021/12/19 07:05:52;;;;;;;;;4.00;4.00;;;;;21.88;52.67;100620.05;108809;1280;19797;-84
2021/12/19 07:08:22;;;;;;;;;3.00;3.00;;;;;21.88;52.52;100617.45;108842;1279;19280;-84
2021/12/19 07:10:52;;;;;;;;;3.00;3.00;;;;;21.88;52.81;100613.27;108862;1279;19251;-83
2021/12/19 07:13:20;;;;;;;;;6.00;3.00;;;;;21.87;52.88;100607.65;108873;1279;23828;-84
2021/12/19 07:15:46;;;;;;;;;2.00;2.00;;;;;21.84;52.53;100605.98;108902;1279;18630;-83
2021/12/19 07:18:16;;;;;;;;;5.00;5.00;;;;;21.82;52.40;100608.52;108873;1279;19063;-82
2021/12/19 07:20:44;;;;;;;;;3.00;3.00;;;;;21.81;52.81;100598.83;108871;1279;22513;-83
2021/12/19 07:23:14;;;;;;;;;3.67;3.00;;;;;21.85;52.95;100590.45;108917;1280;18994;-83
2021/12/19 07:25:53;;;;;;;;;3.67;3.67;;;;;21.87;53.09;100592.70;108819;1281;19082;-83
2021/12/19 07:28:22;;;;;;;;;3.00;3.00;;;;;21.90;53.08;100588.17;108882;1279;19698;-82
2021/12/19 07:30:49;;;;;;;;;4.00;4.00;;;;;21.92;53.00;100587.06;108839;1279;19632;-82
2021/12/19 07:33:17;;;;;;;;;5.00;5.00;;;;;21.91;52.99;100589.27;108875;1279;19123;-81
2021/12/19 07:35:45;;;;;;;;;7.00;4.67;;;;;21.92;53.95;100587.07;108915;1280;23195;-82
2021/12/19 07:38:17;;;;;;;;;4.33;3.00;;;;;21.96;54.35;100588.48;108966;1279;19962;-81
2021/12/19 07:40:50;;;;;;;;;5.50;5.00;;;;;22.03;54.68;100588.73;108890;1280;19214;-83
2021/12/19 07:43:16;;;;;;;;;5.00;4.00;;;;;22.07;55.25;100590.94;108950;1279;19611;-83
2021/12/19 07:45:42;;;;;;;;;5.00;5.00;;;;;22.08;55.47;100584.66;109544;1278;18600;-82
2021/12/19 07:48:08;;;;;;;;;5.00;5.00;;;;;22.11;55.11;100582.69;109406;1279;20256;-84
2021/12/19 07:50:58;;;;;;;;;5.33;5.00;;;;;22.13;54.58;100580.73;108926;1280;23119;-82
2021/12/19 07:53:24;;;;;;;;;6.00;5.00;;;;;22.15;54.26;100579.89;108908;1279;18606;-82
2021/12/19 07:55:51;;;;;;;;;5.00;5.00;;;;;22.13;54.47;100578.28;108902;1279;22318;-83
2021/12/19 07:58:19;;;;;;;;;5.33;5.00;;;;;22.13;54.49;100579.50;108907;1280;20055;-82
2021/12/19 08:00:46;;;;;;;;;5.33;5.00;;;;;22.09;54.23;100574.83;108885;1279;18733;-83
2021/12/19 08:03:12;;;;;;;;;5.00;5.00;;;;;22.06;53.87;100579.76;108894;1280;18701;-82
2021/12/19 08:05:46;;;;;;;;;5.00;5.00;;;;;22.05;53.90;100578.67;108885;1279;20000;-83
2021/12/19 08:08:21;;;;;;;;;5.00;5.00;;;;;22.00;53.87;100575.09;108921;1278;22929;-82
2021/12/19 08:13:31;;;;;;;;;5.33;5.33;;;;;21.95;53.59;100565.54;108936;1280;19786;-83
2021/12/19 08:15:57;;;;;;;;;6.00;5.00;;;;;21.96;53.48;100573.98;108965;1279;22028;-83
2021/12/19 08:18:28;;;;;;;;;6.25;5.75;;;;;21.91;52.48;100571.98;107932;1279;1312717;-84
2021/12/19 08:20:55;;;;;;;;;6.00;5.67;;;;;21.89;52.23;100573.38;108976;1280;19585;-82
2021/12/19 08:23:22;;;;;;;;;5.50;5.00;;;;;21.90;52.43;100572.60;108687;1282;18735;-82
2021/12/19 08:25:48;;;;;;;;;5.00;5.00;;;;;21.93;52.42;100574.48;108843;1279;21269;-83
2021/12/19 08:28:14;;;;;;;;;9.33;6.00;;;;;21.94;52.25;100572.74;109036;1279;19826;-83
2021/12/19 08:30:48;;;;;;;;;5.67;4.67;;;;;21.97;52.19;100570.08;109099;1280;19965;-83
2021/12/19 08:33:14;;;;;;;;;7.00;7.00;;;;;21.96;51.86;100570.59;109039;1280;18714;-81
2021/12/19 08:35:40;;;;;;;;;6.00;6.00;;;;;21.95;52.00;100569.91;108888;1279;19336;-82
2021/12/19 08:38:07;;;;;;;;;7.00;6.00;;;;;21.93;52.20;100563.02;108949;1279;18589;-81
2021/12/19 08:40:34;;;;;;;;;6.00;6.00;;;;;21.91;51.97;100561.13;108941;1279;19243;-80
2021/12/19 08:43:00;;;;;;;;;7.00;6.00;;;;;21.91;52.02;100558.05;108891;1280;19316;-79
2021/12/19 08:45:27;;;;;;;;;6.00;6.00;;;;;21.91;51.90;100557.25;109069;1279;22028;-81
2021/12/19 08:47:54;;;;;;;;;9.00;7.00;;;;;21.95;51.88;100557.21;109002;1279;20308;-79
2021/12/19 08:50:23;;;;;;;;;6.00;6.00;;;;;21.99;51.86;100554.45;108875;1279;20033;-81
2021/12/19 08:52:49;;;;;;;;;7.00;7.00;;;;;22.00;51.74;100548.04;108914;1280;20407;-81
2021/12/19 08:55:16;;;;;;;;;7.33;6.00;;;;;21.99;51.88;100549.92;109115;1280;19267;-80
2021/12/19 08:57:43;;;;;;;;;21.00;18.00;;;;;21.94;51.89;100551.48;109628;1282;21484;-81
2021/12/19 09:00:11;;;;;;;;;97.33;68.00;;;;;21.97;51.58;100554.35;109495;1280;19001;-80
2021/12/19 09:02:38;;;;;;;;;196.25;139.75;;;;;21.97;51.93;100554.02;109140;1278;19511;-80
2021/12/19 09:05:06;;;;;;;;;186.33;141.00;;;;;21.94;52.06;100550.36;108997;1280;19763;-81
2021/12/19 09:07:34;;;;;;;;;241.00;177.00;;;;;21.93;51.99;100547.40;108933;1279;19363;-82
2021/12/19 09:10:01;;;;;;;;;231.75;173.25;;;;;21.90;51.82;100543.60;108917;1280;19061;-80
2021/12/19 09:12:29;;;;;;;;;193.00;146.00;;;;;21.90;51.83;100538.09;108887;1279;21003;-81
2021/12/19 09:14:56;;;;;;;;;191.50;147.00;;;;;21.93;51.41;100534.64;108913;1280;19490;-81
2021/12/19 09:17:24;;;;;;;;;178.75;135.00;;;;;21.96;51.29;100529.06;108894;1279;22776;-81
2021/12/19 09:19:54;;;;;;;;;144.25;118.75;;;;;21.97;51.04;100530.89;108904;1279;20193;-81
2021/12/19 09:22:20;;;;;;;;;141.00;117.00;;;;;21.98;51.18;100533.54;108909;1279;19018;-80
2021/12/19 09:24:47;;;;;;;;;141.50;105.50;;;;;21.97;51.42;100528.77;108663;1281;19193;-81
2021/12/19 09:27:16;;;;;;;;;127.33;94.67;;;;;22.00;51.54;100523.58;108922;1279;20913;-79
2021/12/19 09:29:42;;;;;;;;;103.50;75.50;;;;;22.02;51.38;100513.73;108784;1280;19202;-81
2021/12/19 09:32:10;;;;;;;;;103.00;76.67;;;;;22.04;51.41;100515.30;108864;1279;18982;-80
2021/12/19 09:34:37;;;;;;;;;91.00;65.00;;;;;21.93;51.17;100526.00;108919;1279;22222;-80
2021/12/19 09:37:05;;;;;;;;;81.67;61.00;;;;;21.77;49.92;100521.38;108925;1280;19768;-80
2021/12/19 09:39:35;;;;;;;;;71.33;54.67;;;;;21.62;49.54;100517.64;108922;1280;19322;-80
2021/12/19 09:42:09;;;;;;;;;71.00;54.67;;;;;21.53;48.91;100514.25;108945;1279;19815;-80
2021/12/19 09:44:36;;;;;;;;;75.33;55.00;;;;;21.53;48.86;100508.29;108606;1280;18901;-80
2021/12/19 09:47:05;;;;;;;;;72.00;53.00;;;;;21.67;49.04;100499.16;108917;1279;19145;-80
2021/12/19 09:49:34;;;;;;;;;74.67;58.33;;;;;21.80;48.93;100496.58;108925;1280;19615;-80
2021/12/19 09:52:02;;;;;;;;;73.00;53.00;;;;;21.84;49.10;100490.63;108917;1280;19080;-80
2021/12/19 09:54:28;;;;;;;;;70.00;54.00;;;;;21.90;49.29;100487.05;108910;1279;19998;-80
2021/12/19 09:56:59;;;;;;;;;69.67;52.67;;;;;21.92;49.27;100487.36;108859;1280;19639;-80
2021/12/19 09:59:25;;;;;;;;;65.00;47.00;;;;;21.86;49.09;100480.36;108920;1279;19160;-80
2021/12/19 10:02:00;;;;;;;;;62.00;49.33;;;;;21.82;49.24;100479.05;108859;1280;19288;-80
2021/12/19 10:04:27;;;;;;;;;69.50;49.50;;;;;21.76;49.33;100469.86;108876;1280;20296;-80
2021/12/19 10:06:55;;;;;;;;;65.50;46.00;;;;;21.78;49.48;100470.15;108896;1279;19155;-81
2021/12/19 10:09:21;;;;;;;;;63.33;46.33;;;;;21.78;49.58;100467.05;109353;1278;22259;-81
2021/12/19 10:11:57;;;;;;;;;63.33;48.00;;;;;21.77;49.81;100457.88;109018;1279;20161;-81
2021/12/19 10:14:41;;;;;;;;;59.00;46.00;;;;;21.77;49.65;100464.26;108877;1279;18865;-80
2021/12/19 10:17:07;;;;;;;;;52.00;42.00;;;;;21.74;49.72;100458.77;108851;1279;18911;-81
2021/12/19 10:19:38;;;;;;;;;58.33;46.33;;;;;21.74;49.68;100463.20;108876;1279;22229;-81
2021/12/19 10:22:06;;;;;;;;;49.00;41.67;;;;;21.73;49.63;100466.35;108886;1279;20111;-80
2021/12/19 10:24:37;;;;;;;;;59.33;43.33;;;;;21.72;49.78;100461.21;108861;1279;19624;-80
2021/12/19 10:27:03;;;;;;;;;52.33;40.67;;;;;21.71;49.70;100458.23;108898;1280;19743;-80
2021/12/19 10:29:31;;;;;;;;;50.67;41.33;;;;;21.71;49.76;100455.98;108950;1279;18931;-81
2021/12/19 10:32:03;;;;;;;;;47.67;40.33;;;;;21.68;49.78;100452.84;108908;1280;19594;-80
2021/12/19 10:34:33;;;;;;;;;41.67;37.67;;;;;21.71;49.95;100458.55;108936;1280;19908;-80
2021/12/19 10:37:01;;;;;;;;;51.00;38.00;;;;;21.71;49.60;100460.11;108905;1280;18945;-80
2021/12/19 10:39:28;;;;;;;;;45.50;39.00;;;;;21.70;49.68;100460.25;108854;1279;21153;-80
2021/12/19 10:41:55;;;;;;;;;51.50;39.00;;;;;21.68;49.68;100455.79;108567;1280;19973;-80
2021/12/19 10:47:09;;;;;;;;;44.33;37.33;;;;;21.68;49.85;100449.06;108931;1279;19086;-80
2021/12/19 10:49:36;;;;;;;;;42.33;37.00;;;;;21.67;49.72;100444.91;108857;1279;19548;-80
2021/12/19 10:52:05;;;;;;;;;42.00;31.00;;;;;21.69;49.70;100439.68;108951;1279;20221;-81
2021/12/19 10:54:31;;;;;;;;;41.33;34.33;;;;;21.67;49.77;100436.60;108901;1279;18904;-80
2021/12/19 10:56:58;;;;;;;;;38.67;31.33;;;;;21.68;50.02;100436.86;108889;1279;21430;-80
2021/12/19 10:59:26;;;;;;;;;40.00;32.33;;;;;21.68;49.67;100436.48;108884;1280;19136;-80
2021/12/19 11:01:54;;;;;;;;;33.50;28.50;;;;;21.67;49.78;100431.73;108810;1281;18853;-80
2021/12/19 11:04:23;;;;;;;;;34.00;29.33;;;;;21.68;49.83;100424.56;108865;1280;19618;-79
2021/12/19 11:06:50;;;;;;;;;38.00;28.50;;;;;21.66;49.95;100421.27;108836;1280;18846;-80
2021/12/19 11:09:20;;;;;;;;;36.00;28.00;;;;;21.68;49.95;100417.98;108909;1279;19054;-80
2021/12/19 11:11:48;;;;;;;;;34.00;30.00;;;;;21.67;49.85;100421.33;108606;1281;23063;-80
2021/12/19 11:14:16;;;;;;;;;32.33;30.67;;;;;21.66;49.89;100419.98;108914;1279;18844;-80
2021/12/19 11:16:43;;;;;;;;;27.67;24.33;;;;;21.67;49.98;100417.51;109693;1280;18900;-81
2021/12/19 11:19:09;;;;;;;;;31.67;28.67;;;;;21.67;49.79;100419.11;109648;1280;22425;-79
2021/12/19 11:21:39;;;;;;;;;33.00;28.33;;;;;21.71;49.99;100416.65;108588;1281;18937;-80
2021/12/19 11:24:10;;;;;;;;;28.50;26.50;;;;;21.70;50.02;100415.13;108881;1279;19232;-80
2021/12/19 11:26:39;;;;;;;;;33.50;27.00;;;;;21.71;49.90;100411.08;108870;1279;19571;-80
2021/12/19 11:29:06;;;;;;;;;28.00;25.33;;;;;21.68;49.92;100413.16;108893;1279;18775;-80
2021/12/19 11:31:35;;;;;;;;;28.00;26.00;;;;;21.66;49.84;100409.69;108894;1279;18897;-80
2021/12/19 11:34:11;;;;;;;;;26.67;22.00;;;;;21.69;50.11;100409.30;108918;1279;19674;-82
2021/12/19 11:36:38;;;;;;;;;28.00;25.67;;;;;21.73;50.15;100408.35;108915;1279;19509;-80
2021/12/19 11:39:04;;;;;;;;;25.33;22.33;;;;;21.74;50.10;100405.09;108566;1282;19556;-81
2021/12/19 11:41:32;;;;;;;;;26.00;25.00;;;;;21.73;50.33;100393.83;108927;1280;20385;-81
2021/12/19 11:44:01;;;;;;;;;28.00;23.00;;;;;21.74;50.44;100393.00;108671;1280;20833;-80
2021/12/19 11:46:32;;;;;;;;;25.00;22.00;;;;;21.76;50.38;100385.64;108873;1280;19187;-81
2021/12/19 11:48:59;;;;;;;;;21.33;19.00;;;;;21.81;50.55;100385.40;108888;1280;20187;-81
2021/12/19 11:51:26;;;;;;;;;26.50;22.50;;;;;21.81;50.91;100381.17;108896;1279;20877;-80
2021/12/19 11:54:11;;;;;;;;;26.67;21.33;;;;;21.85;51.80;100382.34;108939;1279;19679;-81
2021/12/19 11:56:40;;;;;;;;;22.00;17.67;;;;;21.88;52.92;100377.89;109332;1280;19645;-81
2021/12/19 11:59:10;;;;;;;;;25.67;21.33;;;;;21.93;53.90;100377.34;109076;1281;19034;-81
2021/12/19 12:01:42;;;;;;;;;30.33;22.33;;;;;21.95;54.44;100374.36;108917;1279;21123;-82
2021/12/19 12:04:10;;;;;;;;;27.00;24.00;;;;;22.01;54.41;100375.55;108973;1280;19553;-81
2021/12/19 12:06:36;;;;;;;;;27.00;25.67;;;;;22.02;54.95;100374.75;108612;1280;19021;-81
2021/12/19 12:09:04;;;;;;;;;21.67;20.67;;;;;22.00;55.58;100376.45;108943;1280;19477;-83
2021/12/19 12:11:34;;;;;;;;;27.50;25.50;;;;;21.96;55.63;100367.52;108937;1279;19878;-83
2021/12/19 12:14:00;;;;;;;;;59.33;47.33;;;;;21.97;55.81;100360.85;108950;1279;18582;-82
2021/12/19 12:16:33;;;;;;;;;139.50;121.75;;;;;21.98;54.93;100365.57;108990;1280;18977;-83